sensor_id;sensor_type;location;lat;lon;timestamp;P1;durP1;ratioP1;P2;durP2;ratioP2
20859;SDS011;10590;48.154;11.514;2023-06-14T00:02:09;3.87;;;3.07;;
20859;SDS011;10590;48.154;11.514;2023-06-14T00:07:36;2.87;;;2.57;;
20859;SDS011;10590;48.154;11.514;2023-06-14T00:13:02;4.17;;;3.10;;
20859;SDS011;10590;48.154;11.514;2023-06-14T00:18:25;3.27;;;2.33;;
20859;SDS011;10590;48.154;11.514;2023-06-14T00:23:51;3.57;;;2.83;;
20859;SDS011;10590;48.154;11.514;2023-06-14T00:29:13;3.10;;;2.67;;
20859;SDS011;10590;48.154;11.514;2023-06-14T00:34:35;5.07;;;3.23;;
20859;SDS011;10590;48.154;11.514;2023-06-14T00:39:58;3.03;;;2.73;;
20859;SDS011;10590;48.154;11.514;2023-06-14T00:45:21;3.30;;;2.60;;
20859;SDS011;10590;48.154;11.514;2023-06-14T00:50:43;4.60;;;2.63;;
20859;SDS011;10590;48.154;11.514;2023-06-14T00:56:07;2.77;;;2.57;;
20859;SDS011;10590;48.154;11.514;2023-06-14T01:01:29;3.30;;;2.87;;
20859;SDS011;10590;48.154;11.514;2023-06-14T01:06:54;6.30;;;3.03;;
20859;SDS011;10590;48.154;11.514;2023-06-14T01:12:34;3.60;;;2.40;;
20859;SDS011;10590;48.154;11.514;2023-06-14T01:18:00;7.10;;;3.40;;
20859;SDS011;10590;48.154;11.514;2023-06-14T01:23:25;4.07;;;3.03;;
20859;SDS011;10590;48.154;11.514;2023-06-14T01:28:53;4.87;;;3.20;;
20859;SDS011;10590;48.154;11.514;2023-06-14T01:34:18;3.10;;;2.80;;
20859;SDS011;10590;48.154;11.514;2023-06-14T01:39:42;4.20;;;2.40;;
20859;SDS011;10590;48.154;11.514;2023-06-14T01:45:08;4.77;;;3.50;;
20859;SDS011;10590;48.154;11.514;2023-06-14T01:50:31;5.57;;;2.90;;
20859;SDS011;10590;48.154;11.514;2023-06-14T01:55:54;3.27;;;2.93;;
20859;SDS011;10590;48.154;11.514;2023-06-14T02:01:16;2.97;;;2.60;;
20859;SDS011;10590;48.154;11.514;2023-06-14T02:06:39;5.43;;;3.97;;
20859;SDS011;10590;48.154;11.514;2023-06-14T02:12:02;4.60;;;3.20;;
20859;SDS011;10590;48.154;11.514;2023-06-14T02:17:25;4.80;;;3.23;;
20859;SDS011;10590;48.154;11.514;2023-06-14T02:22:47;3.83;;;3.03;;
20859;SDS011;10590;48.154;11.514;2023-06-14T02:28:10;6.03;;;3.23;;
20859;SDS011;10590;48.154;11.514;2023-06-14T02:33:32;4.67;;;3.13;;
20859;SDS011;10590;48.154;11.514;2023-06-14T02:38:54;3.30;;;2.80;;
20859;SDS011;10590;48.154;11.514;2023-06-14T02:44:19;4.73;;;3.30;;
20859;SDS011;10590;48.154;11.514;2023-06-14T02:49:41;6.30;;;3.57;;
20859;SDS011;10590;48.154;11.514;2023-06-14T02:55:03;4.87;;;3.23;;
20859;SDS011;10590;48.154;11.514;2023-06-14T03:00:28;6.77;;;3.67;;
20859;SDS011;10590;48.154;11.514;2023-06-14T03:05:50;4.87;;;4.13;;
20859;SDS011;10590;48.154;11.514;2023-06-14T03:11:14;3.87;;;3.43;;
20859;SDS011;10590;48.154;11.514;2023-06-14T03:16:38;6.57;;;3.90;;
20859;SDS011;10590;48.154;11.514;2023-06-14T03:22:01;6.77;;;3.70;;
20859;SDS011;10590;48.154;11.514;2023-06-14T03:27:23;3.80;;;3.50;;
20859;SDS011;10590;48.154;11.514;2023-06-14T03:32:47;5.93;;;4.10;;
20859;SDS011;10590;48.154;11.514;2023-06-14T03:38:09;7.17;;;4.57;;
20859;SDS011;10590;48.154;11.514;2023-06-14T03:43:31;5.43;;;3.53;;
20859;SDS011;10590;48.154;11.514;2023-06-14T03:48:55;3.67;;;3.23;;
20859;SDS011;10590;48.154;11.514;2023-06-14T03:54:17;4.40;;;3.93;;
20859;SDS011;10590;48.154;11.514;2023-06-14T03:59:39;5.77;;;4.00;;
20859;SDS011;10590;48.154;11.514;2023-06-14T04:05:03;5.10;;;3.90;;
20859;SDS011;10590;48.154;11.514;2023-06-14T04:10:25;4.10;;;3.50;;
20859;SDS011;10590;48.154;11.514;2023-06-14T04:15:48;4.30;;;3.90;;
20859;SDS011;10590;48.154;11.514;2023-06-14T04:21:11;5.77;;;3.87;;
20859;SDS011;10590;48.154;11.514;2023-06-14T04:26:33;5.97;;;3.30;;
20859;SDS011;10590;48.154;11.514;2023-06-14T04:31:55;4.90;;;3.70;;
20859;SDS011;10590;48.154;11.514;2023-06-14T04:37:21;4.73;;;3.50;;
20859;SDS011;10590;48.154;11.514;2023-06-14T04:42:43;3.53;;;2.80;;
20859;SDS011;10590;48.154;11.514;2023-06-14T04:48:06;5.33;;;2.90;;
20859;SDS011;10590;48.154;11.514;2023-06-14T04:53:30;8.73;;;3.23;;
20859;SDS011;10590;48.154;11.514;2023-06-14T04:58:52;4.13;;;2.90;;
20859;SDS011;10590;48.154;11.514;2023-06-14T05:04:14;4.13;;;2.90;;
20859;SDS011;10590;48.154;11.514;2023-06-14T05:09:38;3.47;;;2.73;;
20859;SDS011;10590;48.154;11.514;2023-06-14T05:15:00;3.30;;;2.80;;
20859;SDS011;10590;48.154;11.514;2023-06-14T05:20:22;4.87;;;2.57;;
20859;SDS011;10590;48.154;11.514;2023-06-14T05:25:46;9.67;;;3.60;;
20859;SDS011;10590;48.154;11.514;2023-06-14T05:31:08;5.17;;;3.47;;
20859;SDS011;10590;48.154;11.514;2023-06-14T05:36:30;5.33;;;3.00;;
20859;SDS011;10590;48.154;11.514;2023-06-14T05:41:53;3.23;;;2.93;;
20859;SDS011;10590;48.154;11.514;2023-06-14T05:47:15;2.80;;;2.37;;
20859;SDS011;10590;48.154;11.514;2023-06-14T05:52:37;4.93;;;2.83;;
20859;SDS011;10590;48.154;11.514;2023-06-14T05:58:01;12.17;;;2.60;;
20859;SDS011;10590;48.154;11.514;2023-06-14T06:03:23;5.00;;;2.40;;
20859;SDS011;10590;48.154;11.514;2023-06-14T06:08:45;3.33;;;2.30;;
20859;SDS011;10590;48.154;11.514;2023-06-14T06:14:08;4.07;;;2.73;;
20859;SDS011;10590;48.154;11.514;2023-06-14T06:19:30;3.53;;;2.43;;
20859;SDS011;10590;48.154;11.514;2023-06-14T06:24:52;3.50;;;2.87;;
20859;SDS011;10590;48.154;11.514;2023-06-14T06:30:15;3.43;;;2.40;;
20859;SDS011;10590;48.154;11.514;2023-06-14T06:35:41;7.37;;;2.50;;
20859;SDS011;10590;48.154;11.514;2023-06-14T06:41:05;4.20;;;2.60;;
20859;SDS011;10590;48.154;11.514;2023-06-14T06:46:29;6.87;;;2.87;;
20859;SDS011;10590;48.154;11.514;2023-06-14T06:52:00;4.40;;;2.53;;
20859;SDS011;10590;48.154;11.514;2023-06-14T06:57:23;2.77;;;2.57;;
20859;SDS011;10590;48.154;11.514;2023-06-14T07:02:46;5.77;;;2.67;;
20859;SDS011;10590;48.154;11.514;2023-06-14T07:08:08;4.30;;;2.57;;
20859;SDS011;10590;48.154;11.514;2023-06-14T07:13:30;2.90;;;2.40;;
20859;SDS011;10590;48.154;11.514;2023-06-14T07:18:53;4.97;;;2.43;;
20859;SDS011;10590;48.154;11.514;2023-06-14T07:24:15;5.27;;;2.43;;
20859;SDS011;10590;48.154;11.514;2023-06-14T07:29:37;4.90;;;2.73;;
20859;SDS011;10590;48.154;11.514;2023-06-14T07:35:00;4.23;;;2.20;;
20859;SDS011;10590;48.154;11.514;2023-06-14T07:40:23;2.10;;;1.90;;
20859;SDS011;10590;48.154;11.514;2023-06-14T07:45:45;2.53;;;2.33;;
20859;SDS011;10590;48.154;11.514;2023-06-14T07:51:08;1.90;;;1.80;;
20859;SDS011;10590;48.154;11.514;2023-06-14T07:56:31;3.60;;;2.10;;
20859;SDS011;10590;48.154;11.514;2023-06-14T08:01:53;3.83;;;1.80;;
20859;SDS011;10590;48.154;11.514;2023-06-14T08:07:16;5.10;;;2.13;;
20859;SDS011;10590;48.154;11.514;2023-06-14T08:12:38;2.20;;;2.07;;
20859;SDS011;10590;48.154;11.514;2023-06-14T08:18:00;5.80;;;2.20;;
20859;SDS011;10590;48.154;11.514;2023-06-14T08:23:23;15.57;;;2.07;;
20859;SDS011;10590;48.154;11.514;2023-06-14T08:28:46;3.90;;;2.00;;
20859;SDS011;10590;48.154;11.514;2023-06-14T08:34:08;2.17;;;1.63;;
20859;SDS011;10590;48.154;11.514;2023-06-14T08:39:33;1.87;;;1.50;;
20859;SDS011;10590;48.154;11.514;2023-06-14T08:44:55;3.00;;;1.77;;
20859;SDS011;10590;48.154;11.514;2023-06-14T08:50:19;2.73;;;1.70;;
20859;SDS011;10590;48.154;11.514;2023-06-14T08:55:43;2.80;;;2.20;;
20859;SDS011;10590;48.154;11.514;2023-06-14T09:01:05;2.97;;;1.83;;
20859;SDS011;10590;48.154;11.514;2023-06-14T09:06:28;4.33;;;1.67;;
20859;SDS011;10590;48.154;11.514;2023-06-14T09:11:51;13.33;;;1.80;;
20859;SDS011;10590;48.154;11.514;2023-06-14T09:17:14;2.27;;;1.80;;
20859;SDS011;10590;48.154;11.514;2023-06-14T09:22:37;4.07;;;2.20;;
20859;SDS011;10590;48.154;11.514;2023-06-14T09:28:00;5.68;;;1.92;;
20859;SDS011;10590;48.154;11.514;2023-06-14T09:33:22;2.60;;;1.80;;
20859;SDS011;10590;48.154;11.514;2023-06-14T09:38:51;4.23;;;1.73;;
20859;SDS011;10590;48.154;11.514;2023-06-14T09:44:15;2.10;;;1.90;;
20859;SDS011;10590;48.154;11.514;2023-06-14T09:49:38;3.57;;;2.10;;
20859;SDS011;10590;48.154;11.514;2023-06-14T09:55:00;5.93;;;2.40;;
20859;SDS011;10590;48.154;11.514;2023-06-14T10:00:35;2.63;;;2.00;;
20859;SDS011;10590;48.154;11.514;2023-06-14T10:05:58;2.10;;;1.90;;
20859;SDS011;10590;48.154;11.514;2023-06-14T10:11:24;4.83;;;2.13;;
20859;SDS011;10590;48.154;11.514;2023-06-14T10:16:49;2.50;;;1.80;;
20859;SDS011;10590;48.154;11.514;2023-06-14T10:22:21;4.32;;;2.83;;
20859;SDS011;10590;48.154;11.514;2023-06-14T10:27:50;2.88;;;1.92;;
20859;SDS011;10590;48.154;11.514;2023-06-14T10:33:13;6.75;;;1.67;;
20859;SDS011;10590;48.154;11.514;2023-06-14T10:38:37;2.30;;;1.90;;
20859;SDS011;10590;48.154;11.514;2023-06-14T10:49:54;3.83;;;1.73;;
20859;SDS011;10590;48.154;11.514;2023-06-14T10:55:17;2.93;;;2.10;;
20859;SDS011;10590;48.154;11.514;2023-06-14T11:00:41;2.53;;;1.77;;
20859;SDS011;10590;48.154;11.514;2023-06-14T11:06:13;2.93;;;2.10;;
20859;SDS011;10590;48.154;11.514;2023-06-14T11:11:37;2.60;;;2.08;;
20859;SDS011;10590;48.154;11.514;2023-06-14T11:16:59;2.53;;;2.15;;
20859;SDS011;10590;48.154;11.514;2023-06-14T11:22:23;7.57;;;2.10;;
20859;SDS011;10590;48.154;11.514;2023-06-14T11:27:45;2.77;;;2.47;;
20859;SDS011;10590;48.154;11.514;2023-06-14T11:33:11;2.33;;;1.90;;
20859;SDS011;10590;48.154;11.514;2023-06-14T11:38:40;2.75;;;2.20;;
20859;SDS011;10590;48.154;11.514;2023-06-14T11:44:03;3.78;;;2.17;;
20859;SDS011;10590;48.154;11.514;2023-06-14T11:49:26;4.35;;;2.10;;
20859;SDS011;10590;48.154;11.514;2023-06-14T11:54:49;2.63;;;2.30;;
20859;SDS011;10590;48.154;11.514;2023-06-14T12:00:12;2.28;;;2.08;;
20859;SDS011;10590;48.154;11.514;2023-06-14T12:05:36;1.65;;;1.55;;
20859;SDS011;10590;48.154;11.514;2023-06-14T12:10:59;2.42;;;1.98;;
20859;SDS011;10590;48.154;11.514;2023-06-14T12:16:21;2.85;;;2.35;;
20859;SDS011;10590;48.154;11.514;2023-06-14T12:21:46;3.25;;;1.98;;
20859;SDS011;10590;48.154;11.514;2023-06-14T12:27:10;1.70;;;1.60;;
20859;SDS011;10590;48.154;11.514;2023-06-14T12:32:36;6.05;;;2.38;;
20859;SDS011;10590;48.154;11.514;2023-06-14T12:37:58;2.92;;;1.98;;
20859;SDS011;10590;48.154;11.514;2023-06-14T12:43:21;3.50;;;1.77;;
20859;SDS011;10590;48.154;11.514;2023-06-14T12:48:43;2.77;;;2.47;;
20859;SDS011;10590;48.154;11.514;2023-06-14T12:54:07;3.03;;;1.90;;
20859;SDS011;10590;48.154;11.514;2023-06-14T12:59:31;4.80;;;2.15;;
20859;SDS011;10590;48.154;11.514;2023-06-14T13:04:54;4.82;;;1.92;;
20859;SDS011;10590;48.154;11.514;2023-06-14T13:10:17;4.43;;;2.00;;
20859;SDS011;10590;48.154;11.514;2023-06-14T13:15:40;2.65;;;1.40;;
20859;SDS011;10590;48.154;11.514;2023-06-14T13:21:04;4.55;;;2.00;;
20859;SDS011;10590;48.154;11.514;2023-06-14T13:26:25;1.70;;;1.60;;
20859;SDS011;10590;48.154;11.514;2023-06-14T13:31:49;2.28;;;1.52;;
20859;SDS011;10590;48.154;11.514;2023-06-14T13:37:11;8.02;;;2.17;;
20859;SDS011;10590;48.154;11.514;2023-06-14T13:42:33;2.53;;;1.73;;
20859;SDS011;10590;48.154;11.514;2023-06-14T13:47:57;3.25;;;2.13;;
20859;SDS011;10590;48.154;11.514;2023-06-14T13:53:19;2.63;;;1.90;;
20859;SDS011;10590;48.154;11.514;2023-06-14T13:58:41;4.03;;;2.30;;
20859;SDS011;10590;48.154;11.514;2023-06-14T14:04:04;3.15;;;1.80;;
20859;SDS011;10590;48.154;11.514;2023-06-14T14:09:26;3.88;;;2.08;;
20859;SDS011;10590;48.154;11.514;2023-06-14T14:14:49;2.67;;;1.80;;
20859;SDS011;10590;48.154;11.514;2023-06-14T14:20:13;2.13;;;1.63;;
20859;SDS011;10590;48.154;11.514;2023-06-14T14:25:36;2.38;;;1.80;;
20859;SDS011;10590;48.154;11.514;2023-06-14T14:30:58;6.35;;;1.67;;
20859;SDS011;10590;48.154;11.514;2023-06-14T14:36:21;4.28;;;1.80;;
20859;SDS011;10590;48.154;11.514;2023-06-14T14:41:43;7.65;;;2.28;;
20859;SDS011;10590;48.154;11.514;2023-06-14T14:47:05;8.40;;;1.90;;
20859;SDS011;10590;48.154;11.514;2023-06-14T14:52:29;9.10;;;2.23;;
20859;SDS011;10590;48.154;11.514;2023-06-14T14:57:51;12.70;;;2.10;;
20859;SDS011;10590;48.154;11.514;2023-06-14T15:03:12;2.27;;;2.00;;
20859;SDS011;10590;48.154;11.514;2023-06-14T15:08:36;2.50;;;2.03;;
20859;SDS011;10590;48.154;11.514;2023-06-14T15:13:58;4.47;;;2.10;;
20859;SDS011;10590;48.154;11.514;2023-06-14T15:19:20;2.15;;;1.77;;
20859;SDS011;10590;48.154;11.514;2023-06-14T15:24:44;3.90;;;1.90;;
20859;SDS011;10590;48.154;11.514;2023-06-14T15:30:06;3.93;;;2.43;;
20859;SDS011;10590;48.154;11.514;2023-06-14T15:35:29;3.57;;;2.27;;
20859;SDS011;10590;48.154;11.514;2023-06-14T15:40:52;2.47;;;2.20;;
20859;SDS011;10590;48.154;11.514;2023-06-14T15:46:14;3.00;;;2.13;;
20859;SDS011;10590;48.154;11.514;2023-06-14T15:51:36;3.97;;;2.47;;
20859;SDS011;10590;48.154;11.514;2023-06-14T15:57:00;9.97;;;2.53;;
20859;SDS011;10590;48.154;11.514;2023-06-14T16:02:22;3.53;;;2.27;;
20859;SDS011;10590;48.154;11.514;2023-06-14T16:07:43;5.93;;;2.20;;
20859;SDS011;10590;48.154;11.514;2023-06-14T16:13:07;5.87;;;2.77;;
20859;SDS011;10590;48.154;11.514;2023-06-14T16:18:29;4.67;;;1.97;;
20859;SDS011;10590;48.154;11.514;2023-06-14T16:23:50;7.07;;;2.28;;
20859;SDS011;10590;48.154;11.514;2023-06-14T16:29:14;6.43;;;2.53;;
20859;SDS011;10590;48.154;11.514;2023-06-14T16:34:36;6.90;;;2.57;;
20859;SDS011;10590;48.154;11.514;2023-06-14T16:39:57;4.90;;;1.80;;
20859;SDS011;10590;48.154;11.514;2023-06-14T16:45:21;3.90;;;2.43;;
20859;SDS011;10590;48.154;11.514;2023-06-14T16:50:44;3.20;;;2.90;;
20859;SDS011;10590;48.154;11.514;2023-06-14T16:56:06;6.77;;;2.80;;
20859;SDS011;10590;48.154;11.514;2023-06-14T17:01:30;2.30;;;2.00;;
20859;SDS011;10590;48.154;11.514;2023-06-14T17:06:54;3.27;;;2.10;;
20859;SDS011;10590;48.154;11.514;2023-06-14T17:12:16;3.97;;;2.27;;
20859;SDS011;10590;48.154;11.514;2023-06-14T17:17:39;3.37;;;2.23;;
20859;SDS011;10590;48.154;11.514;2023-06-14T17:23:01;3.47;;;2.30;;
20859;SDS011;10590;48.154;11.514;2023-06-14T17:28:24;4.10;;;2.47;;
20859;SDS011;10590;48.154;11.514;2023-06-14T17:33:47;3.37;;;2.30;;
20859;SDS011;10590;48.154;11.514;2023-06-14T17:39:09;2.87;;;1.97;;
20859;SDS011;10590;48.154;11.514;2023-06-14T17:44:31;5.93;;;2.63;;
20859;SDS011;10590;48.154;11.514;2023-06-14T17:49:54;2.17;;;1.97;;
20859;SDS011;10590;48.154;11.514;2023-06-14T17:55:16;4.23;;;2.87;;
20859;SDS011;10590;48.154;11.514;2023-06-14T18:00:41;3.50;;;2.23;;
20859;SDS011;10590;48.154;11.514;2023-06-14T18:06:04;9.43;;;2.50;;
20859;SDS011;10590;48.154;11.514;2023-06-14T18:11:26;4.20;;;3.23;;
20859;SDS011;10590;48.154;11.514;2023-06-14T18:16:50;4.77;;;3.17;;
20859;SDS011;10590;48.154;11.514;2023-06-14T18:22:14;4.20;;;2.90;;
20859;SDS011;10590;48.154;11.514;2023-06-14T18:27:36;3.70;;;2.83;;
20859;SDS011;10590;48.154;11.514;2023-06-14T18:32:58;2.97;;;2.23;;
20859;SDS011;10590;48.154;11.514;2023-06-14T18:38:21;4.50;;;3.00;;
20859;SDS011;10590;48.154;11.514;2023-06-14T18:43:43;3.27;;;2.93;;
20859;SDS011;10590;48.154;11.514;2023-06-14T18:49:05;3.20;;;2.23;;
20859;SDS011;10590;48.154;11.514;2023-06-14T18:54:28;4.20;;;3.07;;
20859;SDS011;10590;48.154;11.514;2023-06-14T18:59:50;2.93;;;2.70;;
20859;SDS011;10590;48.154;11.514;2023-06-14T19:05:12;3.93;;;2.97;;
20859;SDS011;10590;48.154;11.514;2023-06-14T19:10:35;3.33;;;2.50;;
20859;SDS011;10590;48.154;11.514;2023-06-14T19:15:59;5.50;;;2.30;;
20859;SDS011;10590;48.154;11.514;2023-06-14T19:21:21;4.33;;;2.53;;
20859;SDS011;10590;48.154;11.514;2023-06-14T19:26:45;5.17;;;2.53;;
20859;SDS011;10590;48.154;11.514;2023-06-14T19:32:07;4.03;;;3.03;;
20859;SDS011;10590;48.154;11.514;2023-06-14T19:37:29;4.13;;;2.60;;
20859;SDS011;10590;48.154;11.514;2023-06-14T19:42:53;4.10;;;2.90;;
20859;SDS011;10590;48.154;11.514;2023-06-14T19:48:18;4.60;;;2.37;;
20859;SDS011;10590;48.154;11.514;2023-06-14T19:53:40;3.13;;;2.23;;
20859;SDS011;10590;48.154;11.514;2023-06-14T19:59:03;6.27;;;2.80;;
20859;SDS011;10590;48.154;11.514;2023-06-14T20:04:25;4.17;;;2.90;;
20859;SDS011;10590;48.154;11.514;2023-06-14T20:09:47;3.27;;;2.50;;
20859;SDS011;10590;48.154;11.514;2023-06-14T20:15:10;3.77;;;2.77;;
20859;SDS011;10590;48.154;11.514;2023-06-14T20:20:33;2.90;;;2.37;;
20859;SDS011;10590;48.154;11.514;2023-06-14T20:25:57;4.23;;;3.37;;
20859;SDS011;10590;48.154;11.514;2023-06-14T20:31:22;5.77;;;3.00;;
20859;SDS011;10590;48.154;11.514;2023-06-14T20:36:45;5.40;;;2.97;;
20859;SDS011;10590;48.154;11.514;2023-06-14T20:42:07;3.90;;;2.50;;
20859;SDS011;10590;48.154;11.514;2023-06-14T20:47:32;3.27;;;2.97;;
20859;SDS011;10590;48.154;11.514;2023-06-14T20:52:54;2.97;;;2.27;;
20859;SDS011;10590;48.154;11.514;2023-06-14T20:58:16;7.17;;;2.57;;
20859;SDS011;10590;48.154;11.514;2023-06-14T21:03:40;5.63;;;2.90;;
20859;SDS011;10590;48.154;11.514;2023-06-14T21:09:02;5.57;;;2.33;;
20859;SDS011;10590;48.154;11.514;2023-06-14T21:14:27;2.60;;;2.40;;
20859;SDS011;10590;48.154;11.514;2023-06-14T21:19:50;3.97;;;2.80;;
20859;SDS011;10590;48.154;11.514;2023-06-14T21:25:12;3.10;;;2.67;;
20859;SDS011;10590;48.154;11.514;2023-06-14T21:30:35;3.70;;;2.40;;
20859;SDS011;10590;48.154;11.514;2023-06-14T21:36:00;5.40;;;2.50;;
20859;SDS011;10590;48.154;11.514;2023-06-14T21:41:22;2.37;;;2.17;;
20859;SDS011;10590;48.154;11.514;2023-06-14T21:46:43;2.90;;;2.53;;
20859;SDS011;10590;48.154;11.514;2023-06-14T21:52:08;2.93;;;2.40;;
20859;SDS011;10590;48.154;11.514;2023-06-14T21:57:30;3.00;;;2.80;;
20859;SDS011;10590;48.154;11.514;2023-06-14T22:02:52;2.73;;;2.53;;
20859;SDS011;10590;48.154;11.514;2023-06-14T22:08:18;3.53;;;2.43;;
20859;SDS011;10590;48.154;11.514;2023-06-14T22:13:41;6.10;;;2.43;;
20859;SDS011;10590;48.154;11.514;2023-06-14T22:19:05;3.00;;;2.70;;
20859;SDS011;10590;48.154;11.514;2023-06-14T22:24:29;4.03;;;3.10;;
20859;SDS011;10590;48.154;11.514;2023-06-14T22:29:51;3.87;;;2.37;;
20859;SDS011;10590;48.154;11.514;2023-06-14T22:35:16;2.13;;;1.90;;
20859;SDS011;10590;48.154;11.514;2023-06-14T22:40:40;3.67;;;2.57;;
20859;SDS011;10590;48.154;11.514;2023-06-14T22:46:02;4.57;;;3.20;;
20859;SDS011;10590;48.154;11.514;2023-06-14T22:51:24;3.10;;;2.80;;
20859;SDS011;10590;48.154;11.514;2023-06-14T22:56:48;5.33;;;3.20;;
20859;SDS011;10590;48.154;11.514;2023-06-14T23:02:10;2.93;;;2.43;;
20859;SDS011;10590;48.154;11.514;2023-06-14T23:07:33;4.37;;;3.07;;
20859;SDS011;10590;48.154;11.514;2023-06-14T23:12:58;3.17;;;2.63;;
20859;SDS011;10590;48.154;11.514;2023-06-14T23:18:22;4.90;;;2.87;;
20859;SDS011;10590;48.154;11.514;2023-06-14T23:23:44;4.00;;;3.03;;
20859;SDS011;10590;48.154;11.514;2023-06-14T23:29:09;3.07;;;2.83;;
20859;SDS011;10590;48.154;11.514;2023-06-14T23:34:31;3.87;;;2.70;;
20859;SDS011;10590;48.154;11.514;2023-06-14T23:39:53;3.50;;;3.20;;
20859;SDS011;10590;48.154;11.514;2023-06-14T23:45:17;3.40;;;3.00;;
20859;SDS011;10590;48.154;11.514;2023-06-14T23:50:39;8.50;;;3.03;;
20859;SDS011;10590;48.154;11.514;2023-06-14T23:56:01;2.87;;;2.47;;
